sensor_id;sensor_type;location;lat;lon;timestamp;temperature;humidity
13436;DHT22;6790;49.520;8.504;2022-07-24T00:00:38;20.50;93.20
13436;DHT22;6790;49.520;8.504;2022-07-24T00:03:04;20.40;94.10
13436;DHT22;6790;49.520;8.504;2022-07-24T00:05:30;20.30;93.60
13436;DHT22;6790;49.520;8.504;2022-07-24T00:07:56;20.20;95.20
13436;DHT22;6790;49.520;8.504;2022-07-24T00:10:22;20.20;94.30
13436;DHT22;6790;49.520;8.504;2022-07-24T00:12:48;20.00;94.20
13436;DHT22;6790;49.520;8.504;2022-07-24T00:15:14;20.00;94.30
13436;DHT22;6790;49.520;8.504;2022-07-24T00:17:40;20.00;95.80
13436;DHT22;6790;49.520;8.504;2022-07-24T00:20:07;19.90;96.30
13436;DHT22;6790;49.520;8.504;2022-07-24T00:22:34;19.80;95.80
13436;DHT22;6790;49.520;8.504;2022-07-24T00:24:59;19.80;95.80
13436;DHT22;6790;49.520;8.504;2022-07-24T00:27:25;19.70;95.60
13436;DHT22;6790;49.520;8.504;2022-07-24T00:29:51;19.70;96.00
13436;DHT22;6790;49.520;8.504;2022-07-24T00:32:16;19.70;96.80
13436;DHT22;6790;49.520;8.504;2022-07-24T00:34:42;19.70;97.90
13436;DHT22;6790;49.520;8.504;2022-07-24T00:37:08;19.70;97.30
13436;DHT22;6790;49.520;8.504;2022-07-24T00:39:34;19.70;97.20
13436;DHT22;6790;49.520;8.504;2022-07-24T00:41:59;19.70;97.20
13436;DHT22;6790;49.520;8.504;2022-07-24T00:44:25;19.60;97.60
13436;DHT22;6790;49.520;8.504;2022-07-24T00:46:51;19.60;96.80
13436;DHT22;6790;49.520;8.504;2022-07-24T00:49:19;19.50;97.60
13436;DHT22;6790;49.520;8.504;2022-07-24T00:51:47;19.50;98.90
13436;DHT22;6790;49.520;8.504;2022-07-24T00:54:17;19.50;97.20
13436;DHT22;6790;49.520;8.504;2022-07-24T00:56:46;19.50;97.80
13436;DHT22;6790;49.520;8.504;2022-07-24T00:59:13;19.50;97.80
13436;DHT22;6790;49.520;8.504;2022-07-24T01:01:39;19.50;98.00
13436;DHT22;6790;49.520;8.504;2022-07-24T01:04:05;19.50;97.70
13436;DHT22;6790;49.520;8.504;2022-07-24T01:06:32;19.40;97.90
13436;DHT22;6790;49.520;8.504;2022-07-24T01:08:58;19.30;98.60
13436;DHT22;6790;49.520;8.504;2022-07-24T01:11:23;19.30;98.80
13436;DHT22;6790;49.520;8.504;2022-07-24T01:13:50;19.30;99.00
13436;DHT22;6790;49.520;8.504;2022-07-24T01:16:16;19.30;99.20
13436;DHT22;6790;49.520;8.504;2022-07-24T01:18:43;19.30;99.90
13436;DHT22;6790;49.520;8.504;2022-07-24T01:21:09;19.30;99.90
13436;DHT22;6790;49.520;8.504;2022-07-24T01:23:35;19.20;99.70
13436;DHT22;6790;49.520;8.504;2022-07-24T01:26:01;19.20;99.70
13436;DHT22;6790;49.520;8.504;2022-07-24T01:28:27;19.30;99.80
13436;DHT22;6790;49.520;8.504;2022-07-24T01:30:53;19.20;99.80
13436;DHT22;6790;49.520;8.504;2022-07-24T01:33:19;19.20;99.90
13436;DHT22;6790;49.520;8.504;2022-07-24T01:35:45;19.10;99.90
13436;DHT22;6790;49.520;8.504;2022-07-24T01:38:11;19.10;99.90
13436;DHT22;6790;49.520;8.504;2022-07-24T01:40:38;19.00;99.90
13436;DHT22;6790;49.520;8.504;2022-07-24T01:43:05;19.00;99.90
13436;DHT22;6790;49.520;8.504;2022-07-24T01:45:31;19.10;99.90
13436;DHT22;6790;49.520;8.504;2022-07-24T01:47:56;19.10;99.90
13436;DHT22;6790;49.520;8.504;2022-07-24T01:50:22;19.00;99.90
13436;DHT22;6790;49.520;8.504;2022-07-24T01:52:48;19.00;99.90
13436;DHT22;6790;49.520;8.504;2022-07-24T01:55:14;18.90;99.90
13436;DHT22;6790;49.520;8.504;2022-07-24T01:57:40;18.90;99.90
13436;DHT22;6790;49.520;8.504;2022-07-24T02:00:08;18.90;99.90
13436;DHT22;6790;49.520;8.504;2022-07-24T02:02:37;18.80;99.90
13436;DHT22;6790;49.520;8.504;2022-07-24T02:05:07;18.80;99.90
13436;DHT22;6790;49.520;8.504;2022-07-24T02:07:33;18.70;99.90
13436;DHT22;6790;49.520;8.504;2022-07-24T02:09:59;18.80;99.90
13436;DHT22;6790;49.520;8.504;2022-07-24T02:12:25;18.80;99.90
13436;DHT22;6790;49.520;8.504;2022-07-24T02:14:51;18.80;99.90
13436;DHT22;6790;49.520;8.504;2022-07-24T02:17:16;18.80;99.90
13436;DHT22;6790;49.520;8.504;2022-07-24T02:19:42;18.80;99.90
13436;DHT22;6790;49.520;8.504;2022-07-24T02:22:08;18.80;99.90
13436;DHT22;6790;49.520;8.504;2022-07-24T02:24:34;18.70;99.90
13436;DHT22;6790;49.520;8.504;2022-07-24T02:26:59;18.60;99.90
13436;DHT22;6790;49.520;8.504;2022-07-24T02:29:25;18.60;99.90
13436;DHT22;6790;49.520;8.504;2022-07-24T02:31:51;18.60;99.90
13436;DHT22;6790;49.520;8.504;2022-07-24T02:34:17;18.60;99.90
13436;DHT22;6790;49.520;8.504;2022-07-24T02:36:42;18.50;99.90
13436;DHT22;6790;49.520;8.504;2022-07-24T02:39:08;18.50;99.90
13436;DHT22;6790;49.520;8.504;2022-07-24T02:41:34;18.40;99.90
13436;DHT22;6790;49.520;8.504;2022-07-24T02:44:00;18.30;99.90
13436;DHT22;6790;49.520;8.504;2022-07-24T02:46:25;18.30;99.90
13436;DHT22;6790;49.520;8.504;2022-07-24T02:48:51;18.20;99.90
13436;DHT22;6790;49.520;8.504;2022-07-24T02:51:17;18.30;99.90
13436;DHT22;6790;49.520;8.504;2022-07-24T02:53:42;18.30;99.90
13436;DHT22;6790;49.520;8.504;2022-07-24T02:56:08;18.30;99.90
13436;DHT22;6790;49.520;8.504;2022-07-24T02:58:34;18.20;99.90
13436;DHT22;6790;49.520;8.504;2022-07-24T03:01:00;18.10;99.90
13436;DHT22;6790;49.520;8.504;2022-07-24T03:03:26;18.00;99.90
13436;DHT22;6790;49.520;8.504;2022-07-24T03:05:52;18.00;99.90
13436;DHT22;6790;49.520;8.504;2022-07-24T03:08:18;18.10;99.90
13436;DHT22;6790;49.520;8.504;2022-07-24T03:10:43;18.10;99.90
13436;DHT22;6790;49.520;8.504;2022-07-24T03:13:09;18.00;99.90
13436;DHT22;6790;49.520;8.504;2022-07-24T03:15:35;18.00;99.90
13436;DHT22;6790;49.520;8.504;2022-07-24T03:18:00;17.90;99.90
13436;DHT22;6790;49.520;8.504;2022-07-24T03:20:28;17.90;99.90
13436;DHT22;6790;49.520;8.504;2022-07-24T03:22:55;17.90;99.90
13436;DHT22;6790;49.520;8.504;2022-07-24T03:25:21;17.90;99.90
13436;DHT22;6790;49.520;8.504;2022-07-24T03:27:49;17.90;99.90
13436;DHT22;6790;49.520;8.504;2022-07-24T03:30:16;17.80;99.90
13436;DHT22;6790;49.520;8.504;2022-07-24T03:32:42;17.70;99.90
13436;DHT22;6790;49.520;8.504;2022-07-24T03:35:08;17.70;99.90
13436;DHT22;6790;49.520;8.504;2022-07-24T03:37:34;17.70;99.90
13436;DHT22;6790;49.520;8.504;2022-07-24T03:40:00;17.70;99.90
13436;DHT22;6790;49.520;8.504;2022-07-24T03:42:26;17.70;99.90
13436;DHT22;6790;49.520;8.504;2022-07-24T03:44:51;17.70;99.90
13436;DHT22;6790;49.520;8.504;2022-07-24T03:47:17;17.70;99.90
13436;DHT22;6790;49.520;8.504;2022-07-24T03:49:43;17.70;99.90
13436;DHT22;6790;49.520;8.504;2022-07-24T03:52:09;17.60;99.90
13436;DHT22;6790;49.520;8.504;2022-07-24T03:54:34;17.60;99.90
13436;DHT22;6790;49.520;8.504;2022-07-24T03:57:00;17.60;99.90
13436;DHT22;6790;49.520;8.504;2022-07-24T03:59:26;17.60;99.90
13436;DHT22;6790;49.520;8.504;2022-07-24T04:01:51;17.60;99.90
13436;DHT22;6790;49.520;8.504;2022-07-24T04:04:17;17.50;99.90
13436;DHT22;6790;49.520;8.504;2022-07-24T04:06:43;17.50;99.90
13436;DHT22;6790;49.520;8.504;2022-07-24T04:09:09;17.50;99.90
13436;DHT22;6790;49.520;8.504;2022-07-24T04:11:35;17.50;99.90
13436;DHT22;6790;49.520;8.504;2022-07-24T04:14:01;17.50;99.90
13436;DHT22;6790;49.520;8.504;2022-07-24T04:16:27;17.40;99.90
13436;DHT22;6790;49.520;8.504;2022-07-24T04:18:52;17.50;99.90
13436;DHT22;6790;49.520;8.504;2022-07-24T04:21:18;17.40;99.90
13436;DHT22;6790;49.520;8.504;2022-07-24T04:23:44;17.40;99.90
13436;DHT22;6790;49.520;8.504;2022-07-24T04:26:10;17.30;99.90
13436;DHT22;6790;49.520;8.504;2022-07-24T04:28:36;17.20;99.90
13436;DHT22;6790;49.520;8.504;2022-07-24T04:31:02;17.20;99.90
13436;DHT22;6790;49.520;8.504;2022-07-24T04:33:27;17.10;99.90
13436;DHT22;6790;49.520;8.504;2022-07-24T04:35:53;17.20;99.90
13436;DHT22;6790;49.520;8.504;2022-07-24T04:38:19;17.20;99.90
13436;DHT22;6790;49.520;8.504;2022-07-24T04:40:45;17.30;99.90
13436;DHT22;6790;49.520;8.504;2022-07-24T04:43:10;17.30;99.90
13436;DHT22;6790;49.520;8.504;2022-07-24T04:45:36;17.40;99.90
13436;DHT22;6790;49.520;8.504;2022-07-24T04:48:02;17.40;99.90
13436;DHT22;6790;49.520;8.504;2022-07-24T04:50:28;17.50;99.90
13436;DHT22;6790;49.520;8.504;2022-07-24T04:52:54;17.60;99.90
13436;DHT22;6790;49.520;8.504;2022-07-24T04:55:20;17.70;99.90
13436;DHT22;6790;49.520;8.504;2022-07-24T04:57:46;17.70;99.90
13436;DHT22;6790;49.520;8.504;2022-07-24T05:00:13;17.90;99.90
13436;DHT22;6790;49.520;8.504;2022-07-24T05:02:39;18.00;99.90
13436;DHT22;6790;49.520;8.504;2022-07-24T05:05:05;18.00;99.90
13436;DHT22;6790;49.520;8.504;2022-07-24T05:07:31;18.00;99.90
13436;DHT22;6790;49.520;8.504;2022-07-24T05:09:57;18.20;99.90
13436;DHT22;6790;49.520;8.504;2022-07-24T05:12:24;18.20;99.90
13436;DHT22;6790;49.520;8.504;2022-07-24T05:14:50;18.30;99.90
13436;DHT22;6790;49.520;8.504;2022-07-24T05:17:16;18.40;99.90
13436;DHT22;6790;49.520;8.504;2022-07-24T05:19:41;18.50;99.90
13436;DHT22;6790;49.520;8.504;2022-07-24T05:22:07;18.60;99.90
13436;DHT22;6790;49.520;8.504;2022-07-24T05:24:33;18.60;99.90
13436;DHT22;6790;49.520;8.504;2022-07-24T05:26:58;18.70;99.90
13436;DHT22;6790;49.520;8.504;2022-07-24T05:29:24;18.80;99.90
13436;DHT22;6790;49.520;8.504;2022-07-24T05:31:50;18.90;99.90
13436;DHT22;6790;49.520;8.504;2022-07-24T05:34:17;19.00;99.90
13436;DHT22;6790;49.520;8.504;2022-07-24T05:36:43;19.10;99.90
13436;DHT22;6790;49.520;8.504;2022-07-24T05:39:08;19.20;99.90
13436;DHT22;6790;49.520;8.504;2022-07-24T05:41:34;19.30;99.90
13436;DHT22;6790;49.520;8.504;2022-07-24T05:44:00;19.40;99.90
13436;DHT22;6790;49.520;8.504;2022-07-24T05:46:26;19.50;99.90
13436;DHT22;6790;49.520;8.504;2022-07-24T05:48:52;19.50;99.90
13436;DHT22;6790;49.520;8.504;2022-07-24T05:51:17;19.60;99.90
13436;DHT22;6790;49.520;8.504;2022-07-24T05:53:43;19.70;99.90
13436;DHT22;6790;49.520;8.504;2022-07-24T05:56:09;19.70;99.90
13436;DHT22;6790;49.520;8.504;2022-07-24T05:58:35;19.70;99.90
13436;DHT22;6790;49.520;8.504;2022-07-24T06:01:00;19.70;99.90
13436;DHT22;6790;49.520;8.504;2022-07-24T06:03:26;19.80;99.90
13436;DHT22;6790;49.520;8.504;2022-07-24T06:05:52;19.80;99.90
13436;DHT22;6790;49.520;8.504;2022-07-24T06:08:18;20.00;99.90
13436;DHT22;6790;49.520;8.504;2022-07-24T06:10:44;20.10;99.90
13436;DHT22;6790;49.520;8.504;2022-07-24T06:13:10;20.20;99.90
13436;DHT22;6790;49.520;8.504;2022-07-24T06:15:36;20.30;99.90
13436;DHT22;6790;49.520;8.504;2022-07-24T06:18:01;20.40;99.90
13436;DHT22;6790;49.520;8.504;2022-07-24T06:20:27;20.60;99.90
13436;DHT22;6790;49.520;8.504;2022-07-24T06:22:53;20.70;99.90
13436;DHT22;6790;49.520;8.504;2022-07-24T06:25:19;20.90;99.90
13436;DHT22;6790;49.520;8.504;2022-07-24T06:27:47;21.00;99.90
13436;DHT22;6790;49.520;8.504;2022-07-24T06:30:22;21.10;99.90
13436;DHT22;6790;49.520;8.504;2022-07-24T06:32:50;21.20;99.90
13436;DHT22;6790;49.520;8.504;2022-07-24T06:35:18;21.30;99.90
13436;DHT22;6790;49.520;8.504;2022-07-24T06:37:44;21.40;99.90
13436;DHT22;6790;49.520;8.504;2022-07-24T06:40:10;21.50;98.30
13436;DHT22;6790;49.520;8.504;2022-07-24T06:42:36;21.60;99.30
13436;DHT22;6790;49.520;8.504;2022-07-24T06:45:02;21.70;98.50
13436;DHT22;6790;49.520;8.504;2022-07-24T06:47:28;21.90;99.80
13436;DHT22;6790;49.520;8.504;2022-07-24T06:49:54;21.90;97.50
13436;DHT22;6790;49.520;8.504;2022-07-24T06:52:20;22.00;97.50
13436;DHT22;6790;49.520;8.504;2022-07-24T06:54:46;22.10;97.30
13436;DHT22;6790;49.520;8.504;2022-07-24T06:57:12;22.30;97.90
13436;DHT22;6790;49.520;8.504;2022-07-24T06:59:38;22.50;96.80
13436;DHT22;6790;49.520;8.504;2022-07-24T07:02:05;22.50;95.70
13436;DHT22;6790;49.520;8.504;2022-07-24T07:04:30;22.50;95.80
13436;DHT22;6790;49.520;8.504;2022-07-24T07:06:56;22.80;96.30
13436;DHT22;6790;49.520;8.504;2022-07-24T07:09:22;22.90;94.80
13436;DHT22;6790;49.520;8.504;2022-07-24T07:11:48;23.10;92.90
13436;DHT22;6790;49.520;8.504;2022-07-24T07:14:13;23.30;93.30
13436;DHT22;6790;49.520;8.504;2022-07-24T07:16:39;23.50;92.80
13436;DHT22;6790;49.520;8.504;2022-07-24T07:19:05;23.40;93.40
13436;DHT22;6790;49.520;8.504;2022-07-24T07:21:30;23.40;92.20
13436;DHT22;6790;49.520;8.504;2022-07-24T07:23:56;23.50;92.20
13436;DHT22;6790;49.520;8.504;2022-07-24T07:26:22;23.60;93.40
13436;DHT22;6790;49.520;8.504;2022-07-24T07:28:48;23.70;95.20
13436;DHT22;6790;49.520;8.504;2022-07-24T07:31:13;23.80;91.30
13436;DHT22;6790;49.520;8.504;2022-07-24T07:33:39;23.80;91.90
13436;DHT22;6790;49.520;8.504;2022-07-24T07:36:05;23.90;90.30
13436;DHT22;6790;49.520;8.504;2022-07-24T07:38:31;24.10;89.50
13436;DHT22;6790;49.520;8.504;2022-07-24T07:40:58;24.20;91.90
13436;DHT22;6790;49.520;8.504;2022-07-24T07:43:24;24.20;88.30
13436;DHT22;6790;49.520;8.504;2022-07-24T07:45:50;24.20;91.80
13436;DHT22;6790;49.520;8.504;2022-07-24T07:48:16;24.40;94.40
13436;DHT22;6790;49.520;8.504;2022-07-24T07:50:42;24.50;94.70
13436;DHT22;6790;49.520;8.504;2022-07-24T07:53:08;24.70;90.30
13436;DHT22;6790;49.520;8.504;2022-07-24T07:55:34;24.80;88.40
13436;DHT22;6790;49.520;8.504;2022-07-24T07:58:00;24.70;90.50
13436;DHT22;6790;49.520;8.504;2022-07-24T08:00:26;25.00;84.50
13436;DHT22;6790;49.520;8.504;2022-07-24T08:02:51;25.10;88.50
13436;DHT22;6790;49.520;8.504;2022-07-24T08:05:17;25.20;95.70
13436;DHT22;6790;49.520;8.504;2022-07-24T08:07:43;25.20;86.60
13436;DHT22;6790;49.520;8.504;2022-07-24T08:10:09;25.30;93.20
13436;DHT22;6790;49.520;8.504;2022-07-24T08:12:35;25.40;91.60
13436;DHT22;6790;49.520;8.504;2022-07-24T08:15:01;25.30;89.60
13436;DHT22;6790;49.520;8.504;2022-07-24T08:17:27;25.20;83.50
13436;DHT22;6790;49.520;8.504;2022-07-24T08:19:53;25.40;80.40
13436;DHT22;6790;49.520;8.504;2022-07-24T08:22:19;25.50;91.70
13436;DHT22;6790;49.520;8.504;2022-07-24T08:24:44;25.40;94.00
13436;DHT22;6790;49.520;8.504;2022-07-24T08:27:10;25.50;90.40
13436;DHT22;6790;49.520;8.504;2022-07-24T08:29:36;25.70;87.80
13436;DHT22;6790;49.520;8.504;2022-07-24T08:32:02;25.80;90.60
13436;DHT22;6790;49.520;8.504;2022-07-24T08:34:28;25.60;91.30
13436;DHT22;6790;49.520;8.504;2022-07-24T08:36:54;25.60;79.90
13436;DHT22;6790;49.520;8.504;2022-07-24T08:39:19;25.70;81.00
13436;DHT22;6790;49.520;8.504;2022-07-24T08:41:45;25.80;77.90
13436;DHT22;6790;49.520;8.504;2022-07-24T08:44:11;26.10;87.50
13436;DHT22;6790;49.520;8.504;2022-07-24T08:46:38;26.30;83.80
13436;DHT22;6790;49.520;8.504;2022-07-24T08:49:12;26.30;82.80
13436;DHT22;6790;49.520;8.504;2022-07-24T08:51:43;26.40;87.50
13436;DHT22;6790;49.520;8.504;2022-07-24T08:54:10;26.20;70.90
13436;DHT22;6790;49.520;8.504;2022-07-24T08:56:40;26.40;70.30
13436;DHT22;6790;49.520;8.504;2022-07-24T08:59:17;26.70;84.40
13436;DHT22;6790;49.520;8.504;2022-07-24T09:01:45;27.10;74.50
13436;DHT22;6790;49.520;8.504;2022-07-24T09:07:11;27.10;82.00
13436;DHT22;6790;49.520;8.504;2022-07-24T09:09:40;27.40;76.80
13436;DHT22;6790;49.520;8.504;2022-07-24T09:12:15;27.40;75.80
13436;DHT22;6790;49.520;8.504;2022-07-24T09:14:46;27.60;75.00
13436;DHT22;6790;49.520;8.504;2022-07-24T09:17:15;27.50;73.00
13436;DHT22;6790;49.520;8.504;2022-07-24T09:19:59;27.30;65.00
13436;DHT22;6790;49.520;8.504;2022-07-24T09:22:37;27.20;64.00
13436;DHT22;6790;49.520;8.504;2022-07-24T09:27:30;27.50;65.00
13436;DHT22;6790;49.520;8.504;2022-07-24T09:29:57;28.10;62.60
13436;DHT22;6790;49.520;8.504;2022-07-24T09:32:24;28.30;70.10
13436;DHT22;6790;49.520;8.504;2022-07-24T09:34:52;28.40;61.10
13436;DHT22;6790;49.520;8.504;2022-07-24T09:37:19;28.60;67.20
13436;DHT22;6790;49.520;8.504;2022-07-24T09:39:46;28.50;69.80
13436;DHT22;6790;49.520;8.504;2022-07-24T09:42:12;28.30;64.70
13436;DHT22;6790;49.520;8.504;2022-07-24T09:44:39;28.20;65.00
13436;DHT22;6790;49.520;8.504;2022-07-24T09:47:07;28.10;75.60
13436;DHT22;6790;49.520;8.504;2022-07-24T09:49:35;28.40;60.40
13436;DHT22;6790;49.520;8.504;2022-07-24T09:52:09;28.60;60.10
13436;DHT22;6790;49.520;8.504;2022-07-24T09:54:41;28.60;56.20
13436;DHT22;6790;49.520;8.504;2022-07-24T09:57:28;28.80;65.10
13436;DHT22;6790;49.520;8.504;2022-07-24T09:59:57;28.70;57.60
13436;DHT22;6790;49.520;8.504;2022-07-24T10:02:29;28.90;63.10
13436;DHT22;6790;49.520;8.504;2022-07-24T10:04:58;28.90;58.90
13436;DHT22;6790;49.520;8.504;2022-07-24T10:07:26;29.10;59.90
13436;DHT22;6790;49.520;8.504;2022-07-24T10:09:55;29.10;68.60
13436;DHT22;6790;49.520;8.504;2022-07-24T10:12:24;28.90;70.10
13436;DHT22;6790;49.520;8.504;2022-07-24T10:14:53;29.00;62.70
13436;DHT22;6790;49.520;8.504;2022-07-24T10:20:03;29.30;61.80
13436;DHT22;6790;49.520;8.504;2022-07-24T10:22:50;29.30;59.90
13436;DHT22;6790;49.520;8.504;2022-07-24T10:25:27;29.20;59.30
13436;DHT22;6790;49.520;8.504;2022-07-24T10:27:58;29.40;57.80
13436;DHT22;6790;49.520;8.504;2022-07-24T10:30:27;29.60;67.40
13436;DHT22;6790;49.520;8.504;2022-07-24T10:32:53;29.50;58.20
13436;DHT22;6790;49.520;8.504;2022-07-24T10:35:31;29.60;56.90
13436;DHT22;6790;49.520;8.504;2022-07-24T10:38:20;29.10;52.60
13436;DHT22;6790;49.520;8.504;2022-07-24T10:40:52;29.40;53.30
13436;DHT22;6790;49.520;8.504;2022-07-24T10:43:21;29.40;52.40
13436;DHT22;6790;49.520;8.504;2022-07-24T10:53:43;29.90;55.70
13436;DHT22;6790;49.520;8.504;2022-07-24T10:59:10;30.30;54.20
13436;DHT22;6790;49.520;8.504;2022-07-24T11:01:41;30.40;49.70
13436;DHT22;6790;49.520;8.504;2022-07-24T11:09:15;30.60;46.50
13436;DHT22;6790;49.520;8.504;2022-07-24T11:14:19;30.40;41.40
13436;DHT22;6790;49.520;8.504;2022-07-24T11:16:48;30.30;50.60
13436;DHT22;6790;49.520;8.504;2022-07-24T11:21:44;30.40;42.90
13436;DHT22;6790;49.520;8.504;2022-07-24T11:29:20;29.80;49.90
13436;DHT22;6790;49.520;8.504;2022-07-24T11:31:54;29.50;44.50
13436;DHT22;6790;49.520;8.504;2022-07-24T11:34:48;30.10;44.60
13436;DHT22;6790;49.520;8.504;2022-07-24T11:37:16;30.20;48.40
13436;DHT22;6790;49.520;8.504;2022-07-24T11:39:43;29.90;42.90
13436;DHT22;6790;49.520;8.504;2022-07-24T11:42:13;30.10;48.30
13436;DHT22;6790;49.520;8.504;2022-07-24T11:44:43;30.40;44.80
13436;DHT22;6790;49.520;8.504;2022-07-24T11:47:22;30.60;42.40
13436;DHT22;6790;49.520;8.504;2022-07-24T11:49:54;31.00;42.40
13436;DHT22;6790;49.520;8.504;2022-07-24T11:52:35;30.90;37.40
13436;DHT22;6790;49.520;8.504;2022-07-24T11:55:08;30.90;43.90
13436;DHT22;6790;49.520;8.504;2022-07-24T11:57:38;31.00;34.60
13436;DHT22;6790;49.520;8.504;2022-07-24T12:00:07;30.80;37.40
13436;DHT22;6790;49.520;8.504;2022-07-24T12:02:42;31.10;35.00
13436;DHT22;6790;49.520;8.504;2022-07-24T12:05:12;31.30;35.80
13436;DHT22;6790;49.520;8.504;2022-07-24T12:07:38;31.30;42.50
13436;DHT22;6790;49.520;8.504;2022-07-24T12:10:05;31.40;46.60
13436;DHT22;6790;49.520;8.504;2022-07-24T12:12:37;30.90;35.70
13436;DHT22;6790;49.520;8.504;2022-07-24T12:17:35;30.90;35.10
13436;DHT22;6790;49.520;8.504;2022-07-24T12:20:21;31.20;39.70
13436;DHT22;6790;49.520;8.504;2022-07-24T12:22:48;31.60;34.10
13436;DHT22;6790;49.520;8.504;2022-07-24T12:25:14;31.40;34.70
13436;DHT22;6790;49.520;8.504;2022-07-24T12:27:43;31.40;30.60
13436;DHT22;6790;49.520;8.504;2022-07-24T12:33:01;31.70;28.70
13436;DHT22;6790;49.520;8.504;2022-07-24T12:35:52;31.80;31.50
13436;DHT22;6790;49.520;8.504;2022-07-24T12:38:34;31.80;33.80
13436;DHT22;6790;49.520;8.504;2022-07-24T12:41:14;32.30;28.80
13436;DHT22;6790;49.520;8.504;2022-07-24T12:46:18;33.00;25.60
13436;DHT22;6790;49.520;8.504;2022-07-24T12:48:59;32.90;27.00
13436;DHT22;6790;49.520;8.504;2022-07-24T12:54:32;32.80;27.20
13436;DHT22;6790;49.520;8.504;2022-07-24T12:57:11;32.20;25.30
13436;DHT22;6790;49.520;8.504;2022-07-24T12:59:46;32.50;25.40
13436;DHT22;6790;49.520;8.504;2022-07-24T13:02:16;32.90;25.80
13436;DHT22;6790;49.520;8.504;2022-07-24T13:04:49;32.50;24.50
13436;DHT22;6790;49.520;8.504;2022-07-24T13:07:21;32.50;27.30
13436;DHT22;6790;49.520;8.504;2022-07-24T13:09:49;33.00;25.80
13436;DHT22;6790;49.520;8.504;2022-07-24T13:12:16;32.80;25.90
13436;DHT22;6790;49.520;8.504;2022-07-24T13:14:42;33.10;29.10
13436;DHT22;6790;49.520;8.504;2022-07-24T13:17:09;32.20;24.20
13436;DHT22;6790;49.520;8.504;2022-07-24T13:19:40;32.10;25.80
13436;DHT22;6790;49.520;8.504;2022-07-24T13:22:07;32.40;24.00
13436;DHT22;6790;49.520;8.504;2022-07-24T13:24:33;32.10;24.30
13436;DHT22;6790;49.520;8.504;2022-07-24T13:27:00;32.20;30.20
13436;DHT22;6790;49.520;8.504;2022-07-24T13:29:26;32.50;27.60
13436;DHT22;6790;49.520;8.504;2022-07-24T13:31:53;32.90;25.20
13436;DHT22;6790;49.520;8.504;2022-07-24T13:34:19;33.00;25.80
13436;DHT22;6790;49.520;8.504;2022-07-24T13:36:45;32.40;25.30
13436;DHT22;6790;49.520;8.504;2022-07-24T13:39:12;32.20;24.40
13436;DHT22;6790;49.520;8.504;2022-07-24T13:41:38;32.60;25.40
13436;DHT22;6790;49.520;8.504;2022-07-24T13:44:05;33.00;27.50
13436;DHT22;6790;49.520;8.504;2022-07-24T13:46:31;33.20;24.30
13436;DHT22;6790;49.520;8.504;2022-07-24T13:48:59;32.80;24.40
13436;DHT22;6790;49.520;8.504;2022-07-24T13:51:26;32.70;24.10
13436;DHT22;6790;49.520;8.504;2022-07-24T13:53:52;32.70;25.40
13436;DHT22;6790;49.520;8.504;2022-07-24T13:56:18;32.70;23.50
13436;DHT22;6790;49.520;8.504;2022-07-24T13:58:44;32.90;26.10
13436;DHT22;6790;49.520;8.504;2022-07-24T14:01:10;33.70;26.80
13436;DHT22;6790;49.520;8.504;2022-07-24T14:03:38;34.20;24.30
13436;DHT22;6790;49.520;8.504;2022-07-24T14:06:08;34.50;22.30
13436;DHT22;6790;49.520;8.504;2022-07-24T14:08:34;34.10;25.70
13436;DHT22;6790;49.520;8.504;2022-07-24T14:11:01;33.90;25.40
13436;DHT22;6790;49.520;8.504;2022-07-24T14:13:26;34.10;23.30
13436;DHT22;6790;49.520;8.504;2022-07-24T14:15:52;33.40;23.70
13436;DHT22;6790;49.520;8.504;2022-07-24T14:18:18;33.20;22.90
13436;DHT22;6790;49.520;8.504;2022-07-24T14:20:44;33.20;25.60
13436;DHT22;6790;49.520;8.504;2022-07-24T14:23:09;32.40;26.60
13436;DHT22;6790;49.520;8.504;2022-07-24T14:25:35;32.40;28.00
13436;DHT22;6790;49.520;8.504;2022-07-24T14:28:01;32.60;26.90
13436;DHT22;6790;49.520;8.504;2022-07-24T14:30:26;32.70;27.00
13436;DHT22;6790;49.520;8.504;2022-07-24T14:32:52;32.50;27.40
13436;DHT22;6790;49.520;8.504;2022-07-24T14:35:18;31.90;26.00
13436;DHT22;6790;49.520;8.504;2022-07-24T14:37:44;31.90;27.90
13436;DHT22;6790;49.520;8.504;2022-07-24T14:40:10;32.00;29.20
13436;DHT22;6790;49.520;8.504;2022-07-24T14:42:36;31.80;28.00
13436;DHT22;6790;49.520;8.504;2022-07-24T14:45:02;31.40;29.60
13436;DHT22;6790;49.520;8.504;2022-07-24T14:47:29;31.50;28.10
13436;DHT22;6790;49.520;8.504;2022-07-24T14:49:55;31.40;26.10
13436;DHT22;6790;49.520;8.504;2022-07-24T14:52:22;31.10;27.20
13436;DHT22;6790;49.520;8.504;2022-07-24T14:54:48;31.30;30.50
13436;DHT22;6790;49.520;8.504;2022-07-24T14:57:14;31.60;30.40
13436;DHT22;6790;49.520;8.504;2022-07-24T14:59:41;31.60;34.10
13436;DHT22;6790;49.520;8.504;2022-07-24T15:02:07;31.70;26.30
13436;DHT22;6790;49.520;8.504;2022-07-24T15:04:35;31.60;28.40
13436;DHT22;6790;49.520;8.504;2022-07-24T15:07:02;31.50;30.50
13436;DHT22;6790;49.520;8.504;2022-07-24T15:09:28;31.70;30.70
13436;DHT22;6790;49.520;8.504;2022-07-24T15:11:54;31.50;27.30
13436;DHT22;6790;49.520;8.504;2022-07-24T15:14:19;31.70;26.10
13436;DHT22;6790;49.520;8.504;2022-07-24T15:16:45;31.80;25.80
13436;DHT22;6790;49.520;8.504;2022-07-24T15:19:11;31.80;27.60
13436;DHT22;6790;49.520;8.504;2022-07-24T15:21:37;31.50;28.10
13436;DHT22;6790;49.520;8.504;2022-07-24T15:24:04;31.30;32.20
13436;DHT22;6790;49.520;8.504;2022-07-24T15:26:31;31.30;27.50
13436;DHT22;6790;49.520;8.504;2022-07-24T15:28:57;31.10;28.30
13436;DHT22;6790;49.520;8.504;2022-07-24T15:31:23;31.10;26.10
13436;DHT22;6790;49.520;8.504;2022-07-24T15:33:49;31.10;29.00
13436;DHT22;6790;49.520;8.504;2022-07-24T15:36:15;31.00;26.40
13436;DHT22;6790;49.520;8.504;2022-07-24T15:38:40;31.00;26.70
13436;DHT22;6790;49.520;8.504;2022-07-24T15:41:06;30.80;27.80
13436;DHT22;6790;49.520;8.504;2022-07-24T15:43:32;31.00;26.90
13436;DHT22;6790;49.520;8.504;2022-07-24T15:45:58;31.00;27.20
13436;DHT22;6790;49.520;8.504;2022-07-24T15:48:24;31.00;28.70
13436;DHT22;6790;49.520;8.504;2022-07-24T15:50:50;30.90;26.90
13436;DHT22;6790;49.520;8.504;2022-07-24T15:53:17;30.80;30.80
13436;DHT22;6790;49.520;8.504;2022-07-24T15:55:42;30.90;30.50
13436;DHT22;6790;49.520;8.504;2022-07-24T15:58:08;31.00;30.90
13436;DHT22;6790;49.520;8.504;2022-07-24T16:00:34;30.90;28.00
13436;DHT22;6790;49.520;8.504;2022-07-24T16:03:00;30.70;30.50
13436;DHT22;6790;49.520;8.504;2022-07-24T16:05:26;31.00;27.60
13436;DHT22;6790;49.520;8.504;2022-07-24T16:07:53;30.90;27.10
13436;DHT22;6790;49.520;8.504;2022-07-24T16:10:19;30.90;30.00
13436;DHT22;6790;49.520;8.504;2022-07-24T16:12:46;30.90;27.70
13436;DHT22;6790;49.520;8.504;2022-07-24T16:15:13;30.70;34.70
13436;DHT22;6790;49.520;8.504;2022-07-24T16:17:40;30.40;30.30
13436;DHT22;6790;49.520;8.504;2022-07-24T16:20:07;30.40;32.50
13436;DHT22;6790;49.520;8.504;2022-07-24T16:22:34;30.10;31.60
13436;DHT22;6790;49.520;8.504;2022-07-24T16:25:01;30.10;35.00
13436;DHT22;6790;49.520;8.504;2022-07-24T16:27:28;30.00;33.30
13436;DHT22;6790;49.520;8.504;2022-07-24T16:29:53;29.90;32.20